sensor_id;sensor_type;location;lat;lon;timestamp;pressure;altitude;pressure_sealevel;temperature;humidity
68580;BME280;55555;52.136;5.424;2022-08-21T00:01:40;101790.50;;;14.09;85.68
68580;BME280;55555;52.136;5.424;2022-08-21T00:04:08;101792.44;;;14.02;85.84
68580;BME280;55555;52.136;5.424;2022-08-21T00:06:40;101795.53;;;14.05;85.97
68580;BME280;55555;52.136;5.424;2022-08-21T00:09:08;101790.59;;;13.96;86.27
68580;BME280;55555;52.136;5.424;2022-08-21T00:11:37;101794.75;;;13.98;86.14
68580;BME280;55555;52.136;5.424;2022-08-21T00:14:07;101798.94;;;13.94;85.81
68580;BME280;55555;52.136;5.424;2022-08-21T00:16:35;101791.44;;;13.96;86.05
68580;BME280;55555;52.136;5.424;2022-08-21T00:19:03;101787.06;;;13.95;86.07
68580;BME280;55555;52.136;5.424;2022-08-21T00:21:32;101796.03;;;13.89;85.97
68580;BME280;55555;52.136;5.424;2022-08-21T00:24:00;101793.13;;;13.90;85.81
68580;BME280;55555;52.136;5.424;2022-08-21T00:26:27;101794.38;;;13.88;86.11
68580;BME280;55555;52.136;5.424;2022-08-21T00:28:55;101797.91;;;13.88;85.91
68580;BME280;55555;52.136;5.424;2022-08-21T00:31:24;101791.88;;;13.86;86.22
68580;BME280;55555;52.136;5.424;2022-08-21T00:33:51;101786.47;;;13.80;86.35
68580;BME280;55555;52.136;5.424;2022-08-21T00:36:26;101781.06;;;13.80;86.13
68580;BME280;55555;52.136;5.424;2022-08-21T00:38:53;101780.03;;;13.74;86.30
68580;BME280;55555;52.136;5.424;2022-08-21T00:41:20;101780.66;;;13.70;86.45
68580;BME280;55555;52.136;5.424;2022-08-21T00:44:06;101779.00;;;13.69;86.39
68580;BME280;55555;52.136;5.424;2022-08-21T00:46:37;101770.25;;;13.67;86.58
68580;BME280;55555;52.136;5.424;2022-08-21T00:49:05;101776.50;;;13.67;86.54
68580;BME280;55555;52.136;5.424;2022-08-21T00:51:50;101780.47;;;13.65;86.72
68580;BME280;55555;52.136;5.424;2022-08-21T00:54:22;101779.03;;;13.55;86.95
68580;BME280;55555;52.136;5.424;2022-08-21T00:56:57;101788.59;;;13.58;86.57
68580;BME280;55555;52.136;5.424;2022-08-21T00:59:27;101784.03;;;13.58;86.67
68580;BME280;55555;52.136;5.424;2022-08-21T01:01:58;101789.88;;;13.55;86.69
68580;BME280;55555;52.136;5.424;2022-08-21T01:04:25;101782.16;;;13.52;86.71
68580;BME280;55555;52.136;5.424;2022-08-21T01:06:53;101781.13;;;13.53;86.57
68580;BME280;55555;52.136;5.424;2022-08-21T01:09:21;101785.31;;;13.49;86.76
68580;BME280;55555;52.136;5.424;2022-08-21T01:11:48;101772.00;;;13.48;87.18
68580;BME280;55555;52.136;5.424;2022-08-21T01:14:15;101767.41;;;13.48;86.91
68580;BME280;55555;52.136;5.424;2022-08-21T01:16:46;101774.09;;;13.46;86.95
68580;BME280;55555;52.136;5.424;2022-08-21T01:19:18;101776.38;;;13.42;87.19
68580;BME280;55555;52.136;5.424;2022-08-21T01:21:47;101778.03;;;13.43;86.76
68580;BME280;55555;52.136;5.424;2022-08-21T01:24:14;101765.75;;;13.41;87.11
68580;BME280;55555;52.136;5.424;2022-08-21T01:26:42;101773.47;;;13.37;87.07
68580;BME280;55555;52.136;5.424;2022-08-21T01:29:36;101783.25;;;13.38;87.05
68580;BME280;55555;52.136;5.424;2022-08-21T01:32:43;101782.63;;;13.36;86.97
68580;BME280;55555;52.136;5.424;2022-08-21T01:35:12;101774.31;;;13.31;87.45
68580;BME280;55555;52.136;5.424;2022-08-21T01:37:40;101780.13;;;13.28;87.74
68580;BME280;55555;52.136;5.424;2022-08-21T01:40:09;101773.69;;;13.29;87.05
68580;BME280;55555;52.136;5.424;2022-08-21T01:42:37;101779.72;;;13.24;87.79
68580;BME280;55555;52.136;5.424;2022-08-21T01:45:06;101773.47;;;13.24;87.36
68580;BME280;55555;52.136;5.424;2022-08-21T01:47:34;101769.09;;;13.23;87.27
68580;BME280;55555;52.136;5.424;2022-08-21T01:50:05;101766.59;;;13.15;87.76
68580;BME280;55555;52.136;5.424;2022-08-21T01:52:34;101767.03;;;13.18;87.39
68580;BME280;55555;52.136;5.424;2022-08-21T01:55:01;101770.56;;;13.19;86.83
68580;BME280;55555;52.136;5.424;2022-08-21T01:57:30;101768.66;;;13.13;87.05
68580;BME280;55555;52.136;5.424;2022-08-21T01:59:58;101766.16;;;13.11;87.05
68580;BME280;55555;52.136;5.424;2022-08-21T02:02:26;101770.75;;;13.11;87.05
68580;BME280;55555;52.136;5.424;2022-08-21T02:04:53;101770.75;;;13.11;86.59
68580;BME280;55555;52.136;5.424;2022-08-21T02:07:20;101762.00;;;13.09;86.71
68580;BME280;55555;52.136;5.424;2022-08-21T02:09:47;101758.06;;;13.05;87.06
68580;BME280;55555;52.136;5.424;2022-08-21T02:12:14;101756.38;;;13.04;87.46
68580;BME280;55555;52.136;5.424;2022-08-21T02:14:41;101753.06;;;13.02;86.98
68580;BME280;55555;52.136;5.424;2022-08-21T02:17:08;101753.50;;;12.99;87.24
68580;BME280;55555;52.136;5.424;2022-08-21T02:19:36;101749.75;;;13.00;87.20
68580;BME280;55555;52.136;5.424;2022-08-21T02:22:07;101748.31;;;12.97;87.20
68580;BME280;55555;52.136;5.424;2022-08-21T02:24:37;101753.91;;;12.96;87.13
68580;BME280;55555;52.136;5.424;2022-08-21T02:27:23;101750.38;;;12.95;87.17
68580;BME280;55555;52.136;5.424;2022-08-21T02:29:56;101746.22;;;12.92;87.14
68580;BME280;55555;52.136;5.424;2022-08-21T02:32:24;101749.97;;;12.91;86.99
68580;BME280;55555;52.136;5.424;2022-08-21T02:34:52;101738.72;;;12.88;86.95
68580;BME280;55555;52.136;5.424;2022-08-21T02:37:19;101744.56;;;12.85;87.05
68580;BME280;55555;52.136;5.424;2022-08-21T02:39:46;101740.41;;;12.82;87.26
68580;BME280;55555;52.136;5.424;2022-08-21T02:42:14;101737.69;;;12.82;87.65
68580;BME280;55555;52.136;5.424;2022-08-21T02:44:41;101738.72;;;12.81;87.29
68580;BME280;55555;52.136;5.424;2022-08-21T02:47:08;101740.19;;;12.77;87.67
68580;BME280;55555;52.136;5.424;2022-08-21T02:49:35;101734.78;;;12.77;87.44
68580;BME280;55555;52.136;5.424;2022-08-21T02:52:02;101732.28;;;12.76;86.94
68580;BME280;55555;52.136;5.424;2022-08-21T02:54:32;101728.94;;;12.74;87.49
68580;BME280;55555;52.136;5.424;2022-08-21T02:56:59;101723.75;;;12.72;87.51
68580;BME280;55555;52.136;5.424;2022-08-21T02:59:26;101726.25;;;12.74;87.79
68580;BME280;55555;52.136;5.424;2022-08-21T03:01:53;101728.31;;;12.72;88.02
68580;BME280;55555;52.136;5.424;2022-08-21T03:04:21;101723.31;;;12.69;88.18
68580;BME280;55555;52.136;5.424;2022-08-21T03:06:48;101727.06;;;12.68;87.63
68580;BME280;55555;52.136;5.424;2022-08-21T03:09:15;101719.16;;;12.66;87.58
68580;BME280;55555;52.136;5.424;2022-08-21T03:11:42;101722.06;;;12.65;87.31
68580;BME280;55555;52.136;5.424;2022-08-21T03:14:10;101727.91;;;12.62;87.32
68580;BME280;55555;52.136;5.424;2022-08-21T03:16:36;101717.72;;;12.64;86.99
68580;BME280;55555;52.136;5.424;2022-08-21T03:19:03;101724.78;;;12.58;87.43
68580;BME280;55555;52.136;5.424;2022-08-21T03:21:30;101727.69;;;12.56;87.49
68580;BME280;55555;52.136;5.424;2022-08-21T03:23:58;101722.47;;;12.55;87.18
68580;BME280;55555;52.136;5.424;2022-08-21T03:26:28;101718.94;;;12.48;87.82
68580;BME280;55555;52.136;5.424;2022-08-21T03:28:56;101714.78;;;12.52;87.79
68580;BME280;55555;52.136;5.424;2022-08-21T03:31:24;101719.56;;;12.50;88.30
68580;BME280;55555;52.136;5.424;2022-08-21T03:33:57;101716.03;;;12.49;88.32
68580;BME280;55555;52.136;5.424;2022-08-21T03:36:25;101712.06;;;12.52;87.47
68580;BME280;55555;52.136;5.424;2022-08-21T03:38:52;101716.22;;;12.48;88.01
68580;BME280;55555;52.136;5.424;2022-08-21T03:41:19;101716.66;;;12.45;87.91
68580;BME280;55555;52.136;5.424;2022-08-21T03:43:46;101713.31;;;12.49;87.40
68580;BME280;55555;52.136;5.424;2022-08-21T03:46:13;101709.19;;;12.47;87.49
68580;BME280;55555;52.136;5.424;2022-08-21T03:48:40;101715.00;;;12.44;87.63
68580;BME280;55555;52.136;5.424;2022-08-21T03:51:07;101712.31;;;12.44;87.21
68580;BME280;55555;52.136;5.424;2022-08-21T03:53:35;101707.94;;;12.43;87.59
68580;BME280;55555;52.136;5.424;2022-08-21T03:56:02;101717.09;;;12.42;87.14
68580;BME280;55555;52.136;5.424;2022-08-21T03:58:31;101720.19;;;12.39;87.67
68580;BME280;55555;52.136;5.424;2022-08-21T04:00:59;101717.91;;;12.36;87.73
68580;BME280;55555;52.136;5.424;2022-08-21T04:03:27;101716.22;;;12.35;87.53
68580;BME280;55555;52.136;5.424;2022-08-21T04:05:55;101722.47;;;12.35;87.76
68580;BME280;55555;52.136;5.424;2022-08-21T04:08:22;101716.44;;;12.33;87.65
68580;BME280;55555;52.136;5.424;2022-08-21T04:10:51;101718.72;;;12.30;87.27
68580;BME280;55555;52.136;5.424;2022-08-21T04:13:20;101719.75;;;12.29;87.22
68580;BME280;55555;52.136;5.424;2022-08-21T04:15:47;101723.69;;;12.26;87.35
68580;BME280;55555;52.136;5.424;2022-08-21T04:18:15;101715.78;;;12.24;87.44
68580;BME280;55555;52.136;5.424;2022-08-21T04:20:44;101715.16;;;12.22;87.45
68580;BME280;55555;52.136;5.424;2022-08-21T04:23:17;101711.44;;;12.23;87.33
68580;BME280;55555;52.136;5.424;2022-08-21T04:25:51;101714.53;;;12.20;87.61
68580;BME280;55555;52.136;5.424;2022-08-21T04:28:19;101711.22;;;12.18;88.00
68580;BME280;55555;52.136;5.424;2022-08-21T04:30:50;101709.75;;;12.16;87.68
68580;BME280;55555;52.136;5.424;2022-08-21T04:33:18;101711.63;;;12.15;88.87
68580;BME280;55555;52.136;5.424;2022-08-21T04:35:46;101720.75;;;12.14;88.33
68580;BME280;55555;52.136;5.424;2022-08-21T04:38:14;101714.31;;;12.15;88.78
68580;BME280;55555;52.136;5.424;2022-08-21T04:40:41;101711.63;;;12.15;88.99
68580;BME280;55555;52.136;5.424;2022-08-21T04:43:09;101715.56;;;12.19;88.66
68580;BME280;55555;52.136;5.424;2022-08-21T04:45:39;101706.22;;;12.15;89.05
68580;BME280;55555;52.136;5.424;2022-08-21T04:48:11;101709.34;;;12.19;88.53
68580;BME280;55555;52.136;5.424;2022-08-21T04:53:30;101707.06;;;12.22;89.30
68580;BME280;55555;52.136;5.424;2022-08-21T04:56:08;101713.50;;;12.21;89.82
68580;BME280;55555;52.136;5.424;2022-08-21T04:58:42;101712.06;;;12.25;89.69
68580;BME280;55555;52.136;5.424;2022-08-21T05:01:13;101716.63;;;12.25;90.01
68580;BME280;55555;52.136;5.424;2022-08-21T05:03:44;101724.53;;;12.26;90.44
68580;BME280;55555;52.136;5.424;2022-08-21T05:06:14;101722.06;;;12.32;89.99
68580;BME280;55555;52.136;5.424;2022-08-21T05:08:43;101723.72;;;12.33;89.77
68580;BME280;55555;52.136;5.424;2022-08-21T05:11:12;101724.13;;;12.36;90.03
68580;BME280;55555;52.136;5.424;2022-08-21T05:13:39;101725.59;;;12.39;89.80
68580;BME280;55555;52.136;5.424;2022-08-21T05:16:07;101734.97;;;12.43;90.07
68580;BME280;55555;52.136;5.424;2022-08-21T05:18:34;101742.03;;;12.44;90.81
68580;BME280;55555;52.136;5.424;2022-08-21T05:21:02;101738.94;;;12.47;90.27
68580;BME280;55555;52.136;5.424;2022-08-21T05:23:30;101742.84;;;12.51;89.57
68580;BME280;55555;52.136;5.424;2022-08-21T05:25:58;101745.13;;;12.54;89.76
68580;BME280;55555;52.136;5.424;2022-08-21T05:28:27;101742.44;;;12.54;90.55
68580;BME280;55555;52.136;5.424;2022-08-21T05:30:54;101738.50;;;12.56;88.60
68580;BME280;55555;52.136;5.424;2022-08-21T05:33:22;101742.47;;;12.67;91.07
68580;BME280;55555;52.136;5.424;2022-08-21T05:35:51;101741.22;;;12.70;90.38
68580;BME280;55555;52.136;5.424;2022-08-21T05:38:19;101740.38;;;12.76;91.17
68580;BME280;55555;52.136;5.424;2022-08-21T05:40:46;101743.50;;;12.79;91.10
68580;BME280;55555;52.136;5.424;2022-08-21T05:43:14;101742.06;;;12.83;90.62
68580;BME280;55555;52.136;5.424;2022-08-21T05:45:42;101742.47;;;12.87;90.43
68580;BME280;55555;52.136;5.424;2022-08-21T05:48:12;101740.81;;;12.92;90.30
68580;BME280;55555;52.136;5.424;2022-08-21T05:50:42;101737.28;;;12.99;90.24
68580;BME280;55555;52.136;5.424;2022-08-21T05:53:10;101734.94;;;13.02;89.40
68580;BME280;55555;52.136;5.424;2022-08-21T05:55:39;101743.28;;;13.07;88.78
68580;BME280;55555;52.136;5.424;2022-08-21T05:58:13;101738.91;;;13.13;88.65
68580;BME280;55555;52.136;5.424;2022-08-21T06:00:43;101738.09;;;13.19;89.41
68580;BME280;55555;52.136;5.424;2022-08-21T06:03:24;101725.81;;;13.23;87.19
68580;BME280;55555;52.136;5.424;2022-08-21T06:05:53;101723.72;;;13.32;88.42
68580;BME280;55555;52.136;5.424;2022-08-21T06:08:22;101734.09;;;13.41;89.00
68580;BME280;55555;52.136;5.424;2022-08-21T06:10:51;101738.69;;;13.47;89.85
68580;BME280;55555;52.136;5.424;2022-08-21T06:13:19;101738.81;;;13.59;90.54
68580;BME280;55555;52.136;5.424;2022-08-21T06:15:48;101734.00;;;13.68;91.42
68580;BME280;55555;52.136;5.424;2022-08-21T06:18:16;101733.38;;;13.72;89.85
68580;BME280;55555;52.136;5.424;2022-08-21T06:20:44;101720.59;;;13.86;90.91
68580;BME280;55555;52.136;5.424;2022-08-21T06:23:11;101734.78;;;13.88;88.76
68580;BME280;55555;52.136;5.424;2022-08-21T06:25:38;101732.44;;;13.98;87.37
68580;BME280;55555;52.136;5.424;2022-08-21T06:28:08;101732.94;;;14.20;88.64
68580;BME280;55555;52.136;5.424;2022-08-21T06:30:38;101728.88;;;14.36;90.80
68580;BME280;55555;52.136;5.424;2022-08-21T06:33:07;101729.88;;;14.73;90.86
68580;BME280;55555;52.136;5.424;2022-08-21T06:35:34;101730.50;;;15.18;91.93
68580;BME280;55555;52.136;5.424;2022-08-21T06:38:02;101730.75;;;15.60;90.96
68580;BME280;55555;52.136;5.424;2022-08-21T06:40:31;101731.91;;;16.00;90.71
68580;BME280;55555;52.136;5.424;2022-08-21T06:43:13;101725.75;;;16.35;88.96
68580;BME280;55555;52.136;5.424;2022-08-21T06:45:41;101732.03;;;16.88;88.43
68580;BME280;55555;52.136;5.424;2022-08-21T06:48:08;101732.28;;;17.22;86.85
68580;BME280;55555;52.136;5.424;2022-08-21T06:50:38;101733.06;;;17.69;84.41
68580;BME280;55555;52.136;5.424;2022-08-21T06:53:09;101740.34;;;17.92;83.85
68580;BME280;55555;52.136;5.424;2022-08-21T06:55:38;101730.53;;;18.19;82.15
68580;BME280;55555;52.136;5.424;2022-08-21T06:58:06;101732.69;;;18.63;82.08
68580;BME280;55555;52.136;5.424;2022-08-21T07:00:37;101728.53;;;18.77;80.64
68580;BME280;55555;52.136;5.424;2022-08-21T07:03:06;101725.41;;;18.85;79.58
68580;BME280;55555;52.136;5.424;2022-08-21T07:05:33;101728.50;;;19.27;78.72
68580;BME280;55555;52.136;5.424;2022-08-21T07:08:00;101721.47;;;19.70;77.16
68580;BME280;55555;52.136;5.424;2022-08-21T07:10:27;101729.88;;;19.08;77.50
68580;BME280;55555;52.136;5.424;2022-08-21T07:12:55;101727.53;;;19.77;76.24
68580;BME280;55555;52.136;5.424;2022-08-21T07:15:28;101722.41;;;19.59;76.81
68580;BME280;55555;52.136;5.424;2022-08-21T07:17:57;101718.00;;;20.01;74.88
68580;BME280;55555;52.136;5.424;2022-08-21T07:20:25;101717.78;;;20.35;75.17
68580;BME280;55555;52.136;5.424;2022-08-21T07:23:02;101712.31;;;20.62;74.56
68580;BME280;55555;52.136;5.424;2022-08-21T07:25:31;101714.47;;;20.33;73.93
68580;BME280;55555;52.136;5.424;2022-08-21T07:27:58;101711.88;;;20.43;72.79
68580;BME280;55555;52.136;5.424;2022-08-21T07:30:26;101724.25;;;20.82;72.47
68580;BME280;55555;52.136;5.424;2022-08-21T07:32:54;101718.44;;;21.11;71.72
68580;BME280;55555;52.136;5.424;2022-08-21T07:35:22;101726.44;;;21.18;70.52
68580;BME280;55555;52.136;5.424;2022-08-21T07:37:49;101716.91;;;21.25;70.37
68580;BME280;55555;52.136;5.424;2022-08-21T07:40:17;101719.34;;;21.22;75.96
68580;BME280;55555;52.136;5.424;2022-08-21T07:42:47;101717.59;;;21.53;69.99
68580;BME280;55555;52.136;5.424;2022-08-21T07:45:16;101719.88;;;21.71;68.50
68580;BME280;55555;52.136;5.424;2022-08-21T07:47:44;101725.50;;;22.01;69.21
68580;BME280;55555;52.136;5.424;2022-08-21T07:50:12;101720.19;;;21.85;69.38
68580;BME280;55555;52.136;5.424;2022-08-21T07:52:40;101720.97;;;21.70;69.47
68580;BME280;55555;52.136;5.424;2022-08-21T07:55:10;101716.50;;;22.31;68.43
68580;BME280;55555;52.136;5.424;2022-08-21T07:57:39;101722.22;;;22.15;67.72
68580;BME280;55555;52.136;5.424;2022-08-21T08:00:10;101720.91;;;22.48;67.36
68580;BME280;55555;52.136;5.424;2022-08-21T08:02:40;101727.78;;;22.60;67.57
68580;BME280;55555;52.136;5.424;2022-08-21T08:05:12;101727.81;;;22.81;66.22
68580;BME280;55555;52.136;5.424;2022-08-21T08:07:39;101722.84;;;22.98;65.44
68580;BME280;55555;52.136;5.424;2022-08-21T08:10:08;101718.47;;;22.82;66.23
68580;BME280;55555;52.136;5.424;2022-08-21T08:12:38;101719.56;;;22.86;64.63
68580;BME280;55555;52.136;5.424;2022-08-21T08:15:10;101710.47;;;22.34;67.19
68580;BME280;55555;52.136;5.424;2022-08-21T08:17:39;101703.06;;;22.55;65.79
68580;BME280;55555;52.136;5.424;2022-08-21T08:20:07;101704.69;;;22.26;66.50
68580;BME280;55555;52.136;5.424;2022-08-21T08:22:37;101714.53;;;22.11;67.76
68580;BME280;55555;52.136;5.424;2022-08-21T08:25:06;101703.34;;;21.56;69.55
68580;BME280;55555;52.136;5.424;2022-08-21T08:27:35;101701.22;;;21.68;69.81
68580;BME280;55555;52.136;5.424;2022-08-21T08:30:03;101717.25;;;21.39;70.64
68580;BME280;55555;52.136;5.424;2022-08-21T08:32:31;101710.38;;;21.31;71.29
68580;BME280;55555;52.136;5.424;2022-08-21T08:34:58;101707.78;;;21.67;70.66
68580;BME280;55555;52.136;5.424;2022-08-21T08:37:25;101709.03;;;22.01;70.25
68580;BME280;55555;52.136;5.424;2022-08-21T08:39:59;101718.56;;;21.94;68.93
68580;BME280;55555;52.136;5.424;2022-08-21T08:42:34;101718.31;;;22.00;69.51
68580;BME280;55555;52.136;5.424;2022-08-21T08:47:40;101710.19;;;22.51;69.88
68580;BME280;55555;52.136;5.424;2022-08-21T08:50:28;101714.06;;;22.75;67.59
68580;BME280;55555;52.136;5.424;2022-08-21T08:53:09;101713.50;;;22.94;67.08
68580;BME280;55555;52.136;5.424;2022-08-21T08:55:42;101709.97;;;22.83;67.64
68580;BME280;55555;52.136;5.424;2022-08-21T08:58:23;101703.03;;;23.16;66.15
68580;BME280;55555;52.136;5.424;2022-08-21T09:00:54;101700.59;;;22.54;67.29
68580;BME280;55555;52.136;5.424;2022-08-21T09:03:23;101708.84;;;22.69;65.93
68580;BME280;55555;52.136;5.424;2022-08-21T09:06:17;101704.13;;;23.10;66.77
68580;BME280;55555;52.136;5.424;2022-08-21T09:09:11;101706.06;;;22.94;66.51
68580;BME280;55555;52.136;5.424;2022-08-21T09:12:04;101705.78;;;23.06;65.27
68580;BME280;55555;52.136;5.424;2022-08-21T09:17:37;101690.38;;;23.15;66.26
68580;BME280;55555;52.136;5.424;2022-08-21T09:23:40;101687.25;;;23.42;65.67
68580;BME280;55555;52.136;5.424;2022-08-21T09:28:43;101684.78;;;24.05;62.48
68580;BME280;55555;52.136;5.424;2022-08-21T09:31:31;101685.84;;;24.48;62.90
68580;BME280;55555;52.136;5.424;2022-08-21T09:34:10;101692.75;;;24.46;62.42
68580;BME280;55555;52.136;5.424;2022-08-21T09:36:45;101699.22;;;24.65;61.28
68580;BME280;55555;52.136;5.424;2022-08-21T09:42:03;101697.41;;;25.13;58.08
68580;BME280;55555;52.136;5.424;2022-08-21T09:44:36;101696.31;;;24.51;60.01
68580;BME280;55555;52.136;5.424;2022-08-21T09:47:10;101698.13;;;24.32;61.45
68580;BME280;55555;52.136;5.424;2022-08-21T09:49:42;101700.44;;;24.83;61.98
68580;BME280;55555;52.136;5.424;2022-08-21T09:52:21;101708.22;;;24.75;58.67
68580;BME280;55555;52.136;5.424;2022-08-21T09:54:54;101702.44;;;23.94;60.37
68580;BME280;55555;52.136;5.424;2022-08-21T09:57:26;101701.44;;;24.24;61.18
68580;BME280;55555;52.136;5.424;2022-08-21T10:00:29;101696.97;;;24.72;61.32
68580;BME280;55555;52.136;5.424;2022-08-21T10:03:27;101686.03;;;24.28;60.48
68580;BME280;55555;52.136;5.424;2022-08-21T10:06:04;101699.00;;;24.90;61.14
68580;BME280;55555;52.136;5.424;2022-08-21T10:08:37;101685.41;;;24.99;58.98
68580;BME280;55555;52.136;5.424;2022-08-21T10:11:11;101684.63;;;24.93;58.82
68580;BME280;55555;52.136;5.424;2022-08-21T10:19:43;101687.16;;;24.90;60.54
68580;BME280;55555;52.136;5.424;2022-08-21T10:22:40;101683.34;;;25.57;58.15
68580;BME280;55555;52.136;5.424;2022-08-21T10:36:16;101678.28;;;25.46;57.21
68580;BME280;55555;52.136;5.424;2022-08-21T10:39:12;101675.81;;;25.68;56.38
68580;BME280;55555;52.136;5.424;2022-08-21T10:42:17;101665.59;;;26.06;57.01
68580;BME280;55555;52.136;5.424;2022-08-21T10:47:47;101672.81;;;26.21;55.15
68580;BME280;55555;52.136;5.424;2022-08-21T10:50:32;101652.97;;;26.84;52.03
68580;BME280;55555;52.136;5.424;2022-08-21T10:55:56;101662.59;;;26.02;53.92
68580;BME280;55555;52.136;5.424;2022-08-21T10:58:30;101658.34;;;26.94;55.24
68580;BME280;55555;52.136;5.424;2022-08-21T11:01:26;101662.22;;;26.28;52.54
68580;BME280;55555;52.136;5.424;2022-08-21T11:04:12;101649.31;;;26.56;52.68
68580;BME280;55555;52.136;5.424;2022-08-21T11:06:47;101646.25;;;26.57;52.36
68580;BME280;55555;52.136;5.424;2022-08-21T11:09:21;101640.13;;;26.28;52.60
68580;BME280;55555;52.136;5.424;2022-08-21T11:11:56;101654.28;;;25.89;56.00
68580;BME280;55555;52.136;5.424;2022-08-21T11:14:51;101660.13;;;26.20;51.39
68580;BME280;55555;52.136;5.424;2022-08-21T11:17:38;101656.22;;;25.46;53.92
68580;BME280;55555;52.136;5.424;2022-08-21T11:20:14;101648.66;;;25.75;54.88
68580;BME280;55555;52.136;5.424;2022-08-21T11:23:07;101640.63;;;25.97;53.06
68580;BME280;55555;52.136;5.424;2022-08-21T11:25:47;101653.81;;;25.82;53.13
68580;BME280;55555;52.136;5.424;2022-08-21T11:28:24;101642.16;;;26.03;53.79
68580;BME280;55555;52.136;5.424;2022-08-21T11:31:37;101653.34;;;25.51;52.29
68580;BME280;55555;52.136;5.424;2022-08-21T11:34:21;101646.66;;;25.81;53.35
68580;BME280;55555;52.136;5.424;2022-08-21T11:37:34;101659.03;;;25.40;51.71
68580;BME280;55555;52.136;5.424;2022-08-21T11:40:59;101655.56;;;25.30;54.88
68580;BME280;55555;52.136;5.424;2022-08-21T11:52:30;101653.84;;;24.86;56.60
68580;BME280;55555;52.136;5.424;2022-08-21T11:55:16;101662.91;;;24.87;56.54
68580;BME280;55555;52.136;5.424;2022-08-21T11:57:53;101666.44;;;24.63;55.02
68580;BME280;55555;52.136;5.424;2022-08-21T12:00:36;101667.69;;;24.47;56.47
68580;BME280;55555;52.136;5.424;2022-08-21T12:03:16;101662.91;;;24.24;57.61
68580;BME280;55555;52.136;5.424;2022-08-21T12:06:02;101673.97;;;24.14;57.44
68580;BME280;55555;52.136;5.424;2022-08-21T12:08:36;101668.00;;;24.01;58.98
68580;BME280;55555;52.136;5.424;2022-08-21T12:14:16;101672.59;;;23.67;60.62
68580;BME280;55555;52.136;5.424;2022-08-21T12:16:47;101673.94;;;23.80;59.17
68580;BME280;55555;52.136;5.424;2022-08-21T12:22:07;101667.66;;;23.64;62.33
68580;BME280;55555;52.136;5.424;2022-08-21T12:24:49;101665.50;;;23.51;61.61
68580;BME280;55555;52.136;5.424;2022-08-21T12:29:56;101667.13;;;23.52;62.18
68580;BME280;55555;52.136;5.424;2022-08-21T12:32:29;101664.91;;;23.64;62.32
68580;BME280;55555;52.136;5.424;2022-08-21T12:35:19;101667.53;;;23.89;62.09
68580;BME280;55555;52.136;5.424;2022-08-21T12:40:41;101657.75;;;24.12;57.95
68580;BME280;55555;52.136;5.424;2022-08-21T12:43:20;101662.31;;;23.88;58.09
68580;BME280;55555;52.136;5.424;2022-08-21T12:45:52;101671.56;;;23.48;59.25
68580;BME280;55555;52.136;5.424;2022-08-21T12:53:28;101666.25;;;24.16;57.71
68580;BME280;55555;52.136;5.424;2022-08-21T12:56:03;101665.97;;;24.17;59.53
68580;BME280;55555;52.136;5.424;2022-08-21T12:58:35;101662.88;;;24.29;57.01
68580;BME280;55555;52.136;5.424;2022-08-21T13:01:05;101668.69;;;24.27;59.83
68580;BME280;55555;52.136;5.424;2022-08-21T13:03:36;101673.38;;;24.27;60.71
68580;BME280;55555;52.136;5.424;2022-08-21T13:06:05;101671.34;;;23.93;56.59
68580;BME280;55555;52.136;5.424;2022-08-21T13:08:36;101666.38;;;23.95;56.93
68580;BME280;55555;52.136;5.424;2022-08-21T13:11:10;101669.50;;;24.23;56.34
68580;BME280;55555;52.136;5.424;2022-08-21T13:13:41;101675.34;;;23.72;59.66
68580;BME280;55555;52.136;5.424;2022-08-21T13:16:20;101674.31;;;23.58;58.76
68580;BME280;55555;52.136;5.424;2022-08-21T13:19:00;101683.19;;;23.34;58.90
68580;BME280;55555;52.136;5.424;2022-08-21T13:21:33;101677.06;;;23.42;58.25
68580;BME280;55555;52.136;5.424;2022-08-21T13:24:28;101681.00;;;23.31;58.31
68580;BME280;55555;52.136;5.424;2022-08-21T13:27:28;101679.53;;;23.49;59.86
68580;BME280;55555;52.136;5.424;2022-08-21T13:30:17;101670.47;;;23.54;59.78
68580;BME280;55555;52.136;5.424;2022-08-21T13:32:50;101664.91;;;23.69;60.83
68580;BME280;55555;52.136;5.424;2022-08-21T13:35:47;101668.25;;;23.56;60.38
68580;BME280;55555;52.136;5.424;2022-08-21T13:38:13;101669.63;;;23.48;59.31
68580;BME280;55555;52.136;5.424;2022-08-21T13:40:49;101668.25;;;23.56;59.68
68580;BME280;55555;52.136;5.424;2022-08-21T13:43:32;101669.97;;;23.36;62.80
68580;BME280;55555;52.136;5.424;2022-08-21T13:46:02;101661.63;;;23.52;60.61
68580;BME280;55555;52.136;5.424;2022-08-21T13:48:34;101667.69;;;23.59;61.15
68580;BME280;55555;52.136;5.424;2022-08-21T13:51:03;101664.66;;;23.60;59.41
68580;BME280;55555;52.136;5.424;2022-08-21T13:53:43;101667.09;;;23.67;59.59
68580;BME280;55555;52.136;5.424;2022-08-21T13:56:30;101660.25;;;23.59;60.60
68580;BME280;55555;52.136;5.424;2022-08-21T13:59:00;101666.13;;;23.32;59.34
68580;BME280;55555;52.136;5.424;2022-08-21T14:01:48;101662.28;;;23.28;60.08
68580;BME280;55555;52.136;5.424;2022-08-21T14:04:35;101664.97;;;23.43;60.53
68580;BME280;55555;52.136;5.424;2022-08-21T14:07:17;101664.72;;;23.40;62.51
68580;BME280;55555;52.136;5.424;2022-08-21T14:09:52;101656.88;;;22.98;62.64
68580;BME280;55555;52.136;5.424;2022-08-21T14:14:54;101659.53;;;23.33;59.20
68580;BME280;55555;52.136;5.424;2022-08-21T14:17:37;101656.31;;;23.01;60.13
68580;BME280;55555;52.136;5.424;2022-08-21T14:20:11;101660.69;;;23.17;61.95
68580;BME280;55555;52.136;5.424;2022-08-21T14:22:45;101671.16;;;23.10;62.27
68580;BME280;55555;52.136;5.424;2022-08-21T14:25:14;101669.78;;;22.97;61.80
68580;BME280;55555;52.136;5.424;2022-08-21T14:28:18;101664.28;;;22.97;63.28